Time;durP1;ratioP1;P1;durP2;ratioP2;P2;SDS_P1;SDS_P2;PMS_P1;PMS_P2;Temp;Humidity;BMP_temperature;BMP_pressure;BME280_temperature;BME280_humidity;BME280_pressure;Samples;Min_cycle;Max_cycle;Signal;HPM_P1;HPM_P2
2022/09/25 01:44:52;;;;;;;5.00;3.00;;;;;;;12.76;68.58;101781.91;6096314;23;20045;-74
2022/09/25 01:47:24;;;;;;;6.28;3.13;;;;;;;12.79;68.35;101781.97;6073453;23;20540;-72
2022/09/25 01:49:57;;;;;;;6.35;3.20;;;;;;;12.83;68.67;101788.16;6098645;23;20010;-73
2022/09/25 01:52:30;;;;;;;7.13;2.97;;;;;;;12.89;68.64;101781.28;6092948;23;20019;-72
2022/09/25 01:55:03;;;;;;;5.03;2.90;;;;;;;13.00;69.19;101781.47;6097279;23;20016;-72
2022/09/25 01:57:37;;;;;;;5.10;3.10;;;;;;;13.09;69.41;101786.00;6096922;23;20010;-73
2022/09/25 02:00:05;;;;;;;5.05;3.10;;;;;;;13.18;69.40;101781.84;6073871;23;20249;-74
2022/09/25 02:02:39;;;;;;;8.40;3.00;;;;;;;13.27;69.49;101776.75;6092901;23;20014;-74
2022/09/25 02:05:08;;;;;;;6.85;3.13;;;;;;;13.29;69.76;101777.69;6098062;23;20061;-73
2022/09/25 02:07:43;;;;;;;9.02;3.13;;;;;;;13.13;70.49;101785.22;6099511;23;20325;-73
2022/09/25 02:10:14;;;;;;;7.95;3.08;;;;;;;13.34;70.51;101783.88;6096936;23;20356;-73
2022/09/25 02:12:45;;;;;;;5.25;2.85;;;;;;;13.58;69.68;101785.13;6096007;23;20896;-73
2022/09/25 02:15:29;;;;;;;6.82;2.90;;;;;;;13.61;69.73;101775.56;6098039;23;20010;-74
2022/09/25 02:21:07;;;;;;;5.15;2.80;;;;;;;13.70;69.86;101780.94;6095169;23;20048;-73
2022/09/25 02:23:51;;;;;;;5.53;2.58;;;;;;;13.74;69.55;101771.38;6101397;23;20148;-72
2022/09/25 02:26:33;;;;;;;6.10;2.70;;;;;;;13.77;69.54;101763.56;6075028;23;20409;-73
2022/09/25 02:28:59;;;;;;;6.03;2.63;;;;;;;13.73;69.56;101769.59;6078530;23;20010;-73
2022/09/25 02:31:31;;;;;;;5.35;2.40;;;;;;;13.70;70.00;101762.59;6100492;23;20026;-74
2022/09/25 02:33:57;;;;;;;4.50;2.45;;;;;;;13.84;69.80;101765.44;6095666;23;20505;-73
2022/09/25 02:36:22;;;;;;;9.88;2.70;;;;;;;13.88;69.79;101772.47;6096137;23;20094;-73
2022/09/25 02:38:50;;;;;;;5.22;2.40;;;;;;;13.91;69.66;101775.13;6097376;23;20093;-73
2022/09/25 02:41:36;;;;;;;7.63;2.53;;;;;;;13.90;69.79;101776.00;6097896;23;20013;-73
2022/09/25 02:44:12;;;;;;;5.00;2.40;;;;;;;13.99;69.93;101781.34;6097925;23;20425;-73
2022/09/25 02:46:49;;;;;;;4.70;2.20;;;;;;;14.13;69.66;101781.56;6092912;23;20013;-74
2022/09/25 02:49:37;;;;;;;6.88;2.55;;;;;;;14.10;69.89;101784.13;6100106;23;20017;-72
2022/09/25 02:52:37;;;;;;;6.30;2.30;;;;;;;14.12;69.63;101782.41;6098221;23;20725;-74
2022/09/25 02:55:11;;;;;;;7.22;2.53;;;;;;;14.13;69.75;101784.19;6080711;23;20342;-73
2022/09/25 02:57:45;;;;;;;6.63;2.53;;;;;;;14.13;70.03;101781.56;6097056;23;20014;-73
2022/09/25 03:00:12;;;;;;;6.45;2.50;;;;;;;14.17;70.06;101784.22;6100213;23;20029;-73
2022/09/25 03:02:38;;;;;;;4.68;2.40;;;;;;;14.26;69.87;101786.09;6096637;23;20478;-73
2022/09/25 03:05:06;;;;;;;6.20;2.20;;;;;;;14.32;70.00;101787.91;6098754;23;20010;-73
2022/09/25 03:08:36;;;;;;;7.57;2.60;;;;;;;14.32;69.88;101783.56;6101292;23;20010;-73
2022/09/25 03:10:18;;;;;;;3.30;2.20;;;;;;;14.43;69.91;101788.97;6096628;23;20017;-72
2022/09/25 03:12:43;;;;;;;5.90;2.60;;;;;;;14.43;70.05;101795.09;6096572;23;20005;-72
2022/09/25 03:15:11;;;;;;;8.73;2.65;;;;;;;14.17;70.84;101797.34;6096808;23;20025;-73
2022/09/25 03:17:38;;;;;;;8.27;1.90;;;;;;;14.18;71.15;101804.34;6103788;23;20445;-73
2022/09/25 03:20:05;;;;;;;5.50;1.90;;;;;;;14.51;69.57;101795.19;6101418;23;20497;-74
2022/09/25 03:22:30;;;;;;;5.80;1.92;;;;;;;14.74;68.78;101782.31;6094231;23;20014;-74
2022/09/25 03:24:56;;;;;;;5.50;1.92;;;;;;;14.72;68.61;101781.41;6099613;23;20080;-72
2022/09/25 03:27:21;;;;;;;5.07;2.17;;;;;;;14.76;68.64;101781.44;6098646;23;20010;-73
2022/09/25 03:29:48;;;;;;;5.32;2.10;;;;;;;14.42;70.17;101774.06;6104456;23;20002;-72
2022/09/25 03:32:14;;;;;;;6.45;2.40;;;;;;;14.33;70.81;101780.06;6099378;23;20888;-72
2022/09/25 03:34:39;;;;;;;5.80;2.17;;;;;;;14.04;71.85;101779.66;6090883;23;20628;-72
2022/09/25 03:37:05;;;;;;;4.40;2.10;;;;;;;14.38;71.12;101778.41;6100973;23;20288;-74
2022/09/25 03:39:30;;;;;;;5.82;2.10;;;;;;;14.59;69.60;101770.78;6097064;23;20102;-72
2022/09/25 03:41:55;;;;;;;5.93;2.10;;;;;;;14.49;69.80;101768.03;6101152;23;20046;-73
2022/09/25 03:44:21;;;;;;;5.20;2.28;;;;;;;14.40;70.13;101762.66;6093992;23;20324;-74
2022/09/25 03:46:46;;;;;;;5.47;2.35;;;;;;;14.26;70.68;101766.84;6099820;23;20006;-73
2022/09/25 03:49:12;;;;;;;5.90;2.20;;;;;;;14.43;69.38;101758.34;6100675;23;20042;-73
2022/09/25 03:51:38;;;;;;;4.13;2.00;;;;;;;14.28;70.05;101759.88;6096887;23;20014;-73
2022/09/25 03:54:04;;;;;;;6.03;2.00;;;;;;;14.31;69.00;101757.28;6098356;23;20010;-72
2022/09/25 03:56:29;;;;;;;7.45;2.10;;;;;;;14.20;69.31;101759.78;6068129;23;20405;-74
2022/09/25 03:58:56;;;;;;;7.50;2.13;;;;;;;14.18;68.83;101761.50;6100766;23;20010;-73
2022/09/25 04:01:22;;;;;;;4.55;2.00;;;;;;;14.04;69.19;101755.19;6101923;23;20006;-73
2022/09/25 04:03:49;;;;;;;4.78;2.22;;;;;;;13.96;69.59;101755.13;6097944;23;20013;-73
2022/09/25 04:06:18;;;;;;;4.50;2.00;;;;;;;13.98;69.12;101765.59;6099229;23;20025;-74
2022/09/25 04:08:45;;;;;;;4.85;2.05;;;;;;;13.98;69.10;101758.63;6097951;23;20010;-73
2022/09/25 04:11:11;;;;;;;5.00;2.00;;;;;;;13.96;68.96;101752.50;6103287;23;20233;-73
2022/09/25 04:13:36;;;;;;;4.88;2.33;;;;;;;13.90;68.86;101760.28;6074006;23;20010;-73
2022/09/25 04:16:04;;;;;;;5.10;2.20;;;;;;;13.86;68.81;101753.19;6095254;23;20021;-73
2022/09/25 04:18:30;;;;;;;6.07;2.10;;;;;;;13.81;68.76;101760.13;6099412;23;20005;-73
2022/09/25 04:21:05;;;;;;;5.78;2.35;;;;;;;13.75;68.73;101747.81;6098052;23;20009;-73
2022/09/25 04:23:31;;;;;;;3.78;2.15;;;;;;;13.70;68.56;101748.63;6100975;23;20112;-73
2022/09/25 04:25:57;;;;;;;6.65;2.38;;;;;;;13.64;68.79;101746.78;6099965;23;20013;-74
2022/09/25 04:28:22;;;;;;;5.90;2.40;;;;;;;13.59;68.99;101738.00;6095801;23;20421;-73
2022/09/25 04:30:49;;;;;;;5.85;2.40;;;;;;;13.55;68.92;101735.28;6101178;23;20060;-72
2022/09/25 04:35:58;;;;;;;5.43;2.20;;;;;;;13.48;68.74;101734.31;6099035;23;20072;-74
2022/09/25 04:38:24;;;;;;;3.42;2.17;;;;;;;13.45;68.82;101741.25;6096233;23;20084;-74
2022/09/25 04:40:49;;;;;;;3.25;1.95;;;;;;;13.42;68.84;101742.06;6101576;23;20029;-73
2022/09/25 04:43:15;;;;;;;5.38;2.00;;;;;;;13.40;68.77;101736.81;6098109;23;20457;-73
2022/09/25 04:45:40;;;;;;;7.07;2.83;;;;;;;13.31;69.59;101735.78;6094232;23;20415;-73
2022/09/25 04:48:06;;;;;;;5.55;2.95;;;;;;;13.24;70.48;101736.53;6101248;23;20010;-74
2022/09/25 04:50:32;;;;;;;7.90;2.80;;;;;;;13.29;70.49;101748.00;6066951;23;20585;-73
2022/09/25 04:52:58;;;;;;;5.63;2.50;;;;;;;13.37;69.75;101748.97;6100560;23;20559;-73
2022/09/25 04:55:24;;;;;;;5.32;2.30;;;;;;;13.34;69.89;101741.97;6098835;23;20064;-73
2022/09/25 04:57:54;;;;;;;7.95;2.30;;;;;;;13.38;70.17;101738.53;6094994;23;20100;-73
2022/09/25 05:00:21;;;;;;;6.20;2.35;;;;;;;13.51;70.35;101733.47;6096280;23;20085;-73
2022/09/25 05:02:46;;;;;;;5.43;2.58;;;;;;;13.55;70.61;101736.16;6097830;23;20014;-72
2022/09/25 05:05:13;;;;;;;4.80;2.45;;;;;;;13.69;70.35;101734.63;6098342;23;20464;-73
2022/09/25 05:07:38;;;;;;;5.72;2.58;;;;;;;13.72;70.73;101741.66;6099292;23;20477;-72
2022/09/25 05:10:06;;;;;;;7.90;2.90;;;;;;;13.63;71.37;101745.03;6098863;23;20058;-74
2022/09/25 05:12:32;;;;;;;7.18;2.92;;;;;;;13.75;71.23;101744.31;6095916;23;20084;-74
2022/09/25 05:14:57;;;;;;;4.75;2.70;;;;;;;13.82;71.35;101730.44;6067833;23;20335;-73
2022/09/25 05:17:22;;;;;;;7.32;2.40;;;;;;;13.97;70.46;101742.84;6100484;23;20008;-73
2022/09/25 05:19:48;;;;;;;6.05;2.60;;;;;;;13.97;70.39;101745.47;6100093;23;20333;-73
2022/09/25 05:22:14;;;;;;;6.63;2.45;;;;;;;13.98;70.22;101745.50;6097623;23;20013;-73
2022/09/25 05:24:39;;;;;;;5.47;2.38;;;;;;;13.89;70.51;101745.41;6097374;23;20505;-72
2022/09/25 05:27:05;;;;;;;4.72;2.33;;;;;;;13.88;69.96;101741.00;6094771;23;20093;-74
2022/09/25 05:29:30;;;;;;;5.20;2.22;;;;;;;13.85;69.77;101738.34;6100418;23;20318;-73
2022/09/25 05:31:55;;;;;;;4.90;2.25;;;;;;;13.82;69.66;101731.31;6099435;23;20034;-74
2022/09/25 05:34:21;;;;;;;5.40;2.28;;;;;;;13.79;69.79;101736.50;6095372;23;20467;-73
2022/09/25 05:36:46;;;;;;;6.05;2.20;;;;;;;13.80;70.08;101737.41;6101611;23;20314;-74
2022/09/25 05:39:12;;;;;;;6.70;2.53;;;;;;;13.84;70.11;101743.56;6096411;23;20058;-73
2022/09/25 05:41:37;;;;;;;4.85;2.70;;;;;;;13.72;70.89;101742.53;6101335;23;20013;-73
2022/09/25 05:44:05;;;;;;;6.57;2.90;;;;;;;13.76;71.01;101736.47;6098290;23;20076;-74
2022/09/25 05:46:32;;;;;;;5.60;2.70;;;;;;;13.74;71.57;101737.31;6093603;23;20021;-74
2022/09/25 05:48:59;;;;;;;6.22;2.67;;;;;;;13.97;71.24;101735.88;6098569;23;20014;-72
2022/09/25 05:51:24;;;;;;;4.07;2.38;;;;;;;14.12;71.31;101740.44;6098623;23;20009;-74
2022/09/25 05:53:52;;;;;;;8.13;2.60;;;;;;;14.14;71.41;101744.88;6102164;23;20010;-74
2022/09/25 05:56:18;;;;;;;5.72;2.90;;;;;;;14.29;71.38;101746.78;6096331;23;20009;-71
2022/09/25 05:58:44;;;;;;;5.57;2.65;;;;;;;14.27;71.53;101750.25;6095225;23;20448;-72
2022/09/25 06:01:09;;;;;;;4.70;2.53;;;;;;;14.45;71.26;101748.78;6098950;23;20006;-74
2022/09/25 06:03:35;;;;;;;7.00;2.63;;;;;;;14.56;70.98;101754.13;6096319;23;20062;-72
2022/09/25 06:06:01;;;;;;;5.18;2.53;;;;;;;14.32;71.61;101753.81;6095393;23;20009;-71
2022/09/25 06:08:29;;;;;;;6.18;2.42;;;;;;;14.56;71.27;101752.41;6093462;23;20029;-72
2022/09/25 06:10:55;;;;;;;7.32;2.40;;;;;;;14.55;70.86;101755.00;6101170;23;20156;-72
2022/09/25 06:13:23;;;;;;;5.68;2.50;;;;;;;14.62;70.63;101754.19;6099160;23;20014;-72
2022/09/25 06:15:51;;;;;;;7.43;2.70;;;;;;;14.61;70.76;101755.94;6094380;23;20013;-72
2022/09/25 06:18:21;;;;;;;5.90;2.28;;;;;;;14.54;70.51;101747.97;6097770;23;20072;-72
2022/09/25 06:20:48;;;;;;;7.30;2.30;;;;;;;14.85;69.59;101742.19;6096828;23;20037;-73
2022/09/25 06:23:14;;;;;;;3.05;2.17;;;;;;;14.99;69.51;101750.19;6100964;23;20429;-73
2022/09/25 06:25:40;;;;;;;4.15;2.10;;;;;;;15.05;69.63;101750.25;6098918;23;20334;-72
2022/09/25 06:28:06;;;;;;;5.60;2.10;;;;;;;15.13;69.39;101753.81;6097988;23;20045;-73
2022/09/25 06:30:34;;;;;;;3.80;2.20;;;;;;;15.13;69.48;101747.66;6097983;23;20009;-72
2022/09/25 06:33:01;;;;;;;5.95;2.28;;;;;;;15.09;69.70;101752.03;6095316;23;20101;-72
2022/09/25 06:35:30;;;;;;;3.42;2.20;;;;;;;15.18;69.75;101753.88;6096518;23;20443;-71
2022/09/25 06:37:57;;;;;;;5.97;2.30;;;;;;;15.22;69.70;101753.91;6073385;23;20424;-72
2022/09/25 06:40:26;;;;;;;4.32;2.08;;;;;;;15.31;69.90;101760.97;6092845;23;20010;-73
2022/09/25 06:42:59;;;;;;;4.22;2.20;;;;;;;15.37;69.99;101751.38;6081323;23;20261;-73
2022/09/25 06:45:26;;;;;;;3.65;2.13;;;;;;;15.49;69.46;101761.09;6122732;23;20010;-73
2022/09/25 06:48:14;;;;;;;5.88;2.47;;;;;;;15.54;69.56;101758.56;6128031;23;20017;-74
2022/09/25 06:50:45;;;;;;;3.95;2.50;;;;;;;15.58;69.70;101750.69;6121836;23;20453;-73
2022/09/25 06:53:12;;;;;;;4.15;2.30;;;;;;;15.62;69.86;101752.47;6132543;23;20421;-72
2022/09/25 06:55:38;;;;;;;4.47;2.20;;;;;;;15.78;69.69;101756.97;6127330;23;20344;-73
2022/09/25 06:58:07;;;;;;;6.60;2.28;;;;;;;15.90;69.48;101755.28;6128582;23;20194;-72
2022/09/25 07:00:33;;;;;;;4.78;2.38;;;;;;;15.98;69.16;101751.81;6126776;23;20013;-72
2022/09/25 07:05:44;;;;;;;4.97;2.20;;;;;;;16.17;68.70;101737.88;6129604;23;20108;-73
2022/09/25 07:08:15;;;;;;;4.78;2.38;;;;;;;16.16;68.61;101748.41;6129192;23;20097;-73
2022/09/25 07:10:49;;;;;;;6.10;2.28;;;;;;;16.34;68.26;101743.22;6125741;23;20014;-73
2022/09/25 07:13:23;;;;;;;4.63;2.28;;;;;;;16.48;67.88;101741.50;6132317;23;20009;-73
2022/09/25 07:15:58;;;;;;;5.22;2.00;;;;;;;16.64;67.62;101750.38;6127300;23;20025;-73
2022/09/25 07:18:25;;;;;;;5.57;2.20;;;;;;;16.85;66.83;101744.25;6120358;23;20017;-71
2022/09/25 07:20:52;;;;;;;8.50;2.50;;;;;;;17.01;66.45;101752.19;6125762;23;20009;-73
2022/09/25 07:23:19;;;;;;;6.90;2.20;;;;;;;17.09;65.59;101752.16;6107926;23;20012;-72
2022/09/25 07:25:45;;;;;;;4.72;1.90;;;;;;;16.91;66.23;101752.16;6123846;23;20013;-72
2022/09/25 07:28:12;;;;;;;6.32;2.30;;;;;;;16.79;66.37;101753.00;6127647;23;20129;-72
2022/09/25 07:30:39;;;;;;;7.45;2.30;;;;;;;16.93;66.38;101753.91;6123725;23;20289;-72
2022/09/25 07:33:04;;;;;;;4.88;2.10;;;;;;;17.25;66.20;101753.94;6123992;23;20017;-71
2022/09/25 07:35:29;;;;;;;6.50;2.17;;;;;;;17.58;65.63;101754.78;6125260;23;20268;-72
2022/09/25 07:37:56;;;;;;;6.13;2.08;;;;;;;17.75;64.31;101758.28;6126339;23;20047;-73
2022/09/25 07:40:22;;;;;;;6.85;2.20;;;;;;;17.76;63.97;101754.78;6122747;23;20060;-71
2022/09/25 07:42:47;;;;;;;5.65;1.85;;;;;;;17.74;64.09;101757.44;6124858;23;20014;-72
2022/09/25 07:45:12;;;;;;;4.43;1.83;;;;;;;17.79;64.98;101753.03;6095045;23;20013;-73
2022/09/25 07:47:38;;;;;;;6.28;2.00;;;;;;;18.02;63.84;101758.25;6069190;23;20157;-72
2022/09/25 07:50:03;;;;;;;8.50;1.63;;;;;;;18.20;62.91;101762.56;6098271;23;20441;-72
2022/09/25 07:52:29;;;;;;;4.53;1.80;;;;;;;17.86;63.83;101755.66;6091714;23;20346;-72
2022/09/25 07:54:54;;;;;;;7.40;1.70;;;;;;;18.40;63.09;101758.09;6098778;23;20577;-71
2022/09/25 07:57:20;;;;;;;6.28;1.70;;;;;;;17.76;63.69;101746.88;6097118;23;20017;-71
2022/09/25 07:59:46;;;;;;;4.32;1.50;;;;;;;18.08;62.98;101755.59;6099345;23;20337;-72
2022/09/25 08:02:12;;;;;;;5.75;1.40;;;;;;;18.31;62.49;101749.31;6071881;23;20017;-72
2022/09/25 08:04:37;;;;;;;5.40;1.60;;;;;;;18.40;62.19;101747.53;6090053;23;20212;-72
2022/09/25 08:07:03;;;;;;;5.85;1.50;;;;;;;18.67;62.27;101750.94;6091777;23;20430;-72
2022/09/25 08:09:29;;;;;;;5.90;1.80;;;;;;;18.44;61.11;101756.31;6096651;23;20123;-72
2022/09/25 08:11:54;;;;;;;7.00;1.50;;;;;;;18.36;61.67;101761.63;6098060;23;20137;-71
2022/09/25 08:14:20;;;;;;;6.60;1.17;;;;;;;18.92;57.50;101756.06;6093721;23;20120;-71
2022/09/25 08:16:46;;;;;;;6.38;1.45;;;;;;;19.07;56.14;101749.78;6098524;23;20035;-71
2022/09/25 08:19:12;;;;;;;3.58;1.50;;;;;;;18.69;60.61;101765.00;6098988;23;20005;-71
2022/09/25 08:21:38;;;;;;;5.05;1.35;;;;;;;18.78;59.98;101759.69;6094685;23;20508;-72
2022/09/25 08:24:03;;;;;;;6.15;1.92;;;;;;;18.46;60.83;101760.72;6099877;23;20081;-71
2022/09/25 08:26:29;;;;;;;4.05;1.58;;;;;;;18.47;60.70;101756.31;6090629;23;20590;-72
2022/09/25 08:28:55;;;;;;;5.38;1.45;;;;;;;18.42;61.07;101755.47;6098624;23;20468;-73
2022/09/25 08:31:21;;;;;;;3.80;1.42;;;;;;;18.70;61.10;101757.09;6066060;23;20009;-72
2022/09/25 08:33:48;;;;;;;6.88;1.80;;;;;;;18.35;60.83;101759.88;6095740;23;20061;-72
2022/09/25 08:36:14;;;;;;;5.93;1.60;;;;;;;18.89;60.02;101758.72;6097703;23;20721;-71
2022/09/25 08:38:40;;;;;;;7.07;1.20;;;;;;;18.83;55.55;101749.97;6093798;23;20772;-72
2022/09/25 08:41:15;;;;;;;4.45;1.13;;;;;;;18.97;54.59;101759.53;6071530;23;20009;-73
2022/09/25 08:44:10;;;;;;;7.63;1.20;;;;;;;19.22;54.67;101754.94;6097190;23;20092;-71
2022/09/25 08:49:57;;;;;;;8.25;1.77;;;;;;;18.64;59.20;101755.38;6098199;23;20024;-72
2022/09/25 08:52:22;;;;;;;4.13;1.10;;;;;;;19.30;56.59;101747.84;6090207;23;20024;-72
2022/09/25 08:54:50;;;;;;;4.43;1.20;;;;;;;19.51;56.10;101751.22;6071789;23;20418;-71
2022/09/25 08:57:28;;;;;;;6.53;1.50;;;;;;;19.40;56.82;101748.59;6095985;23;20013;-71
2022/09/25 09:00:00;;;;;;;4.22;1.45;;;;;;;19.07;57.45;101748.91;6096991;23;20006;-71
2022/09/25 09:02:39;;;;;;;4.80;1.50;;;;;;;19.14;56.30;101756.78;6064646;23;20501;-72
2022/09/25 09:05:14;;;;;;;4.07;1.30;;;;;;;18.91;58.46;101749.00;6095599;23;20006;-71
2022/09/25 09:07:44;;;;;;;3.13;1.20;;;;;;;18.31;58.64;101747.56;6100631;23;20016;-71
2022/09/25 09:10:34;;;;;;;4.93;1.30;;;;;;;18.34;58.30;101752.84;6094288;23;20177;-72
2022/09/25 09:13:16;;;;;;;5.72;1.38;;;;;;;18.52;58.91;101741.31;6098097;23;20595;-71
2022/09/25 09:15:48;;;;;;;3.00;1.30;;;;;;;18.37;58.77;101747.53;6092109;23;20327;-70
2022/09/25 09:18:20;;;;;;;7.22;1.70;;;;;;;18.11;59.72;101750.28;6096900;23;20615;-71
2022/09/25 09:20:54;;;;;;;6.95;1.52;;;;;;;17.90;59.67;101734.53;6093157;23;20021;-71
2022/09/25 09:23:29;;;;;;;3.85;1.50;;;;;;;18.04;60.53;101747.69;6098864;23;20029;-72
2022/09/25 09:26:20;;;;;;;4.63;1.35;;;;;;;17.97;61.14;101748.59;6097617;23;20358;-71
2022/09/25 09:28:57;;;;;;;8.15;1.80;;;;;;;18.13;62.18;101740.59;6096832;23;20474;-70
2022/09/25 09:31:48;;;;;;;7.72;1.88;;;;;;;18.31;61.07;101742.28;6097394;23;20029;-71
2022/09/25 09:34:23;;;;;;;5.22;1.60;;;;;;;18.27;58.43;101748.47;6092996;23;20072;-72
2022/09/25 09:37:11;;;;;;;5.80;1.58;;;;;;;18.55;58.90;101750.13;6098862;23;20125;-72
2022/09/25 09:39:55;;;;;;;6.72;1.50;;;;;;;18.99;53.96;101754.25;6069189;23;20010;-71
2022/09/25 09:42:26;;;;;;;6.75;1.30;;;;;;;19.20;55.07;101750.56;6099283;23;20017;-70
2022/09/25 09:45:16;;;;;;;6.25;1.30;;;;;;;19.40;53.90;101748.59;6096964;23;20022;-69
2022/09/25 09:47:59;;;;;;;6.40;1.20;;;;;;;19.35;53.59;101750.44;6096527;23;20548;-70
2022/09/25 09:50:35;;;;;;;4.90;1.27;;;;;;;19.66;51.15;101756.34;6092103;23;20039;-70
2022/09/25 09:53:16;;;;;;;4.28;1.15;;;;;;;19.38;49.43;101746.00;6097540;23;20321;-72
2022/09/25 09:55:46;;;;;;;5.55;1.33;;;;;;;19.99;47.36;101744.53;6094997;23;20398;-70
2022/09/25 09:58:53;;;;;;;4.55;1.30;;;;;;;19.80;48.90;101744.72;6095215;23;20445;-71
2022/09/25 10:01:33;;;;;;;6.35;1.20;;;;;;;19.46;52.05;101739.81;6097479;23;20060;-70
2022/09/25 10:04:21;;;;;;;4.85;1.10;;;;;;;19.82;50.49;101748.22;6092993;23;20018;-71
2022/09/25 10:06:54;;;;;;;4.32;1.20;;;;;;;20.33;49.22;101742.38;6098047;23;20010;-73
2022/09/25 10:09:20;;;;;;;3.38;1.30;;;;;;;19.62;50.32;101741.41;6096800;23;20495;-70
2022/09/25 10:11:52;;;;;;;5.35;1.08;;;;;;;19.33;49.22;101745.13;6097419;23;20006;-72
2022/09/25 10:14:21;;;;;;;3.00;1.00;;;;;;;19.58;49.72;101737.88;6096948;23;20016;-70
2022/09/25 10:16:50;;;;;;;4.18;1.00;;;;;;;18.89;51.27;101742.00;6097035;23;20056;-72
2022/09/25 10:19:20;;;;;;;5.43;1.27;;;;;;;18.88;50.72;101737.59;6099635;23;20357;-72
2022/09/25 10:21:57;;;;;;;3.92;0.88;;;;;;;19.01;51.01;101742.78;6096513;23;20034;-71
2022/09/25 10:24:50;;;;;;;2.00;1.00;;;;;;;18.99;51.61;101743.69;6068056;23;20020;-71
2022/09/25 10:27:44;;;;;;;4.82;1.33;;;;;;;19.04;52.76;101740.09;6098483;23;20367;-71
2022/09/25 10:30:10;;;;;;;6.13;1.10;;;;;;;18.86;53.14;101729.66;6101699;23;20006;-70
2022/09/25 10:33:00;;;;;;;4.15;1.00;;;;;;;19.18;50.97;101725.91;6092621;23;20554;-71
2022/09/25 10:35:56;;;;;;;4.25;1.10;;;;;;;19.46;50.40;101731.88;6095536;23;20568;-73
2022/09/25 10:38:30;;;;;;;4.50;1.00;;;;;;;19.21;51.36;101732.03;6089933;23;20018;-73
2022/09/25 10:41:01;;;;;;;4.22;1.00;;;;;;;19.36;51.76;101731.03;6100885;23;20571;-72
2022/09/25 10:43:27;;;;;;;3.95;0.95;;;;;;;19.27;51.03;101724.03;6102558;23;20013;-73
2022/09/25 10:46:05;;;;;;;4.65;0.85;;;;;;;19.70;49.21;101726.34;6088160;23;20065;-71
2022/09/25 10:51:20;;;;;;;4.45;1.00;;;;;;;19.82;51.17;101720.91;6095547;23;20020;-73
2022/09/25 10:53:51;;;;;;;2.60;0.80;;;;;;;19.34;51.22;101720.47;6099102;23;20238;-71
2022/09/25 10:56:34;;;;;;;3.63;1.05;;;;;;;19.91;50.15;101723.44;6100377;23;20120;-71
2022/09/25 10:59:01;;;;;;;5.72;0.90;;;;;;;19.41;49.35;101722.16;6099660;23;20006;-70
2022/09/25 11:01:39;;;;;;;5.60;0.90;;;;;;;19.55;49.45;101713.25;6098223;23;20006;-72
2022/09/25 11:04:15;;;;;;;2.53;0.85;;;;;;;19.55;49.79;101715.91;6097111;23;20019;-71
2022/09/25 11:07:03;;;;;;;2.95;0.82;;;;;;;19.63;50.10;101711.41;6093402;23;20138;-72
2022/09/25 11:09:31;;;;;;;2.28;0.80;;;;;;;19.78;48.63;101712.13;6071927;23;20548;-71
2022/09/25 11:12:22;;;;;;;3.22;0.93;;;;;;;18.98;52.22;101713.72;6100670;23;20085;-72
2022/09/25 11:15:01;;;;;;;6.32;1.00;;;;;;;19.11;51.41;101708.34;6093216;23;20125;-72
2022/09/25 11:17:32;;;;;;;3.47;1.00;;;;;;;19.19;51.65;101707.41;6099808;23;20248;-71
2022/09/25 11:20:20;;;;;;;4.80;1.40;;;;;;;18.99;50.39;101704.91;6097871;23;20021;-71
2022/09/25 11:23:03;;;;;;;3.58;0.80;;;;;;;19.01;52.00;101704.91;6096319;23;20350;-71
2022/09/25 11:25:47;;;;;;;2.35;0.75;;;;;;;19.08;51.45;101696.03;6073177;23;20009;-73
2022/09/25 11:28:37;;;;;;;3.10;0.90;;;;;;;19.34;51.18;101695.78;6096166;23;20014;-73
2022/09/25 11:31:25;;;;;;;2.38;0.70;;;;;;;19.50;50.74;101697.44;6074703;23;20005;-73
2022/09/25 11:34:13;;;;;;;3.17;1.00;;;;;;;19.66;48.74;101680.50;6096440;23;20018;-71
2022/09/25 11:37:17;;;;;;;4.90;0.90;;;;;;;19.66;51.09;101688.44;6097019;23;20036;-72
2022/09/25 11:43:13;;;;;;;2.95;0.80;;;;;;;19.00;50.66;101695.22;6096237;23;20097;-71
2022/09/25 11:45:46;;;;;;;2.67;0.63;;;;;;;18.91;48.23;101690.88;5976119;23;20026;-71
2022/09/25 11:48:36;;;;;;;4.25;0.70;;;;;;;19.33;46.59;101688.78;5982128;23;20418;-72
2022/09/25 11:51:42;;;;;;;2.47;0.77;;;;;;;19.52;46.26;101681.56;6041684;23;20017;-71
2022/09/25 11:54:11;;;;;;;0.95;0.50;;;;;;;19.29;46.75;101681.75;6097173;23;20360;-72
2022/09/25 11:56:55;;;;;;;3.30;0.70;;;;;;;19.27;46.56;101672.97;6084437;23;20296;-71
2022/09/25 11:59:20;;;;;;;2.65;0.80;;;;;;;19.18;47.43;101670.41;6101479;23;20654;-71
2022/09/25 12:01:55;;;;;;;3.22;0.68;;;;;;;19.74;45.72;101662.78;6098418;23;20625;-72
2022/09/25 12:04:38;;;;;;;2.92;0.70;;;;;;;19.31;48.10;101675.56;6093846;23;20382;-71
2022/09/25 12:07:32;;;;;;;2.47;0.60;;;;;;;19.43;47.11;101674.56;6097348;23;20005;-70
2022/09/25 12:10:16;;;;;;;5.20;0.60;;;;;;;19.76;46.06;101665.41;6095131;23;20099;-72
2022/09/25 12:12:52;;;;;;;1.42;0.70;;;;;;;19.73;46.76;101665.44;6097161;23;20080;-72
2022/09/25 12:15:26;;;;;;;2.28;0.63;;;;;;;19.94;47.15;101664.31;6093920;23;20014;-71
2022/09/25 12:17:58;;;;;;;;;;;;;;;19.83;45.15;101662.66;6100752;23;20006;-71
2022/09/25 12:20:58;;;;;;;1.95;0.60;;;;;;;19.84;44.35;101650.31;6090425;23;19936;-72
2022/09/25 12:23:33;;;;;;;0.80;0.50;;;;;;;20.15;43.88;101646.38;6011573;23;20361;-72
2022/09/25 12:26:29;;;;;;;1.65;0.60;;;;;;;20.21;45.80;101651.56;6096682;23;20013;-72
2022/09/25 12:29:27;;;;;;;1.35;0.50;;;;;;;19.95;43.79;101651.03;6099900;23;20470;-71
2022/09/25 12:32:25;;;;;;;1.90;0.60;;;;;;;19.79;45.00;101649.50;6070180;23;20030;-71
2022/09/25 12:35:09;;;;;;;1.33;0.70;;;;;;;19.89;46.21;101652.88;6041199;23;20014;-72
2022/09/25 12:37:45;;;;;;;0.90;0.70;;;;;;;19.68;47.77;101649.63;6041926;23;20021;-72
2022/09/25 12:40:47;;;;;;;2.65;0.70;;;;;;;19.97;46.00;101646.59;6038169;23;20094;-71
2022/09/25 12:43:23;;;;;;;3.20;0.75;;;;;;;19.63;47.30;101646.16;6009621;23;20459;-71
2022/09/25 12:46:11;;;;;;;1.52;0.63;;;;;;;19.50;48.79;101647.19;6095961;23;20434;-71
2022/09/25 12:48:48;;;;;;;1.77;0.68;;;;;;;19.53;48.78;101640.97;6094010;23;20435;-71
2022/09/25 12:51:36;;;;;;;1.80;0.60;;;;;;;20.21;49.61;101634.81;6093577;23;20350;-71
2022/09/25 12:54:12;;;;;;;2.10;0.90;;;;;;;20.38;47.70;101630.16;6097731;23;20006;-71
2022/09/25 12:56:56;;;;;;;3.03;0.77;;;;;;;20.18;47.72;101629.56;6091964;23;20009;-72
2022/09/25 12:59:42;;;;;;;3.65;0.90;;;;;;;19.82;49.98;101630.94;6099597;23;20002;-72
2022/09/25 13:02:50;;;;;;;1.40;0.60;;;;;;;20.27;49.64;101624.13;6097296;23;20010;-72
2022/09/25 13:05:32;;;;;;;3.83;0.70;;;;;;;20.57;50.80;101622.81;6096403;23;20133;-71
2022/09/25 13:08:14;;;;;;;1.63;0.55;;;;;;;20.56;47.21;101621.06;6099408;23;20466;-71
2022/09/25 13:10:49;;;;;;;3.40;0.70;;;;;;;21.12;46.95;101614.78;6095305;23;20006;-71
2022/09/25 13:13:19;;;;;;;2.15;0.60;;;;;;;21.53;42.74;101611.38;6096314;23;20016;-73
2022/09/25 13:15:49;;;;;;;1.05;0.55;;;;;;;21.34;42.41;101615.31;6094590;23;20414;-71
2022/09/25 13:18:19;;;;;;;1.63;0.40;;;;;;;20.81;42.32;101614.47;6096919;23;20048;-71
2022/09/25 13:20:49;;;;;;;2.80;0.50;;;;;;;20.59;43.60;101623.69;6093787;23;20206;-72
2022/09/25 13:23:24;;;;;;;1.08;0.50;;;;;;;21.38;43.76;101614.34;6098982;23;20085;-72
2022/09/25 13:25:58;;;;;;;1.00;0.40;;;;;;;20.96;44.19;101613.34;6096432;23;20049;-72
2022/09/25 13:28:39;;;;;;;1.48;0.43;;;;;;;20.19;42.72;101618.06;6090793;23;20393;-72
2022/09/25 13:31:20;;;;;;;2.75;0.63;;;;;;;20.14;44.94;101607.53;6098421;23;20010;-72
2022/09/25 13:33:55;;;;;;;2.03;0.65;;;;;;;20.24;44.93;101610.94;6091729;23;20017;-71
2022/09/25 13:36:22;;;;;;;1.58;0.45;;;;;;;20.10;43.99;101603.19;6094749;23;20047;-72
2022/09/25 13:41:48;;;;;;;1.65;0.70;;;;;;;19.67;44.87;101605.53;6097808;23;20025;-71
2022/09/25 13:44:40;;;;;;;1.92;0.70;;;;;;;19.27;46.53;101610.34;6072061;23;20022;-72
2022/09/25 13:47:20;;;;;;;1.67;0.55;;;;;;;19.21;46.73;101606.94;6071560;23;20010;-73
2022/09/25 13:50:07;;;;;;;1.48;0.70;;;;;;;19.13;46.60;101604.38;6098501;23;20504;-72
2022/09/25 13:52:39;;;;;;;1.65;0.70;;;;;;;19.55;46.48;101600.41;6088292;23;20357;-72
2022/09/25 13:55:18;;;;;;;2.75;0.82;;;;;;;19.14;47.91;101600.84;6094451;23;20009;-73